sensor_id;sensor_type;location;lat;lon;timestamp;P1;durP1;ratioP1;P2;durP2;ratioP2
16472;SDS011;8347;52.486;13.432;2023-12-20T00:02:32;8.65;;;6.40;;
16472;SDS011;8347;52.486;13.432;2023-12-20T00:05:18;8.77;;;6.55;;
16472;SDS011;8347;52.486;13.432;2023-12-20T00:08:05;7.75;;;6.22;;
16472;SDS011;8347;52.486;13.432;2023-12-20T00:10:51;8.77;;;6.70;;
16472;SDS011;8347;52.486;13.432;2023-12-20T00:13:37;8.93;;;6.40;;
16472;SDS011;8347;52.486;13.432;2023-12-20T00:16:24;7.22;;;6.07;;
16472;SDS011;8347;52.486;13.432;2023-12-20T00:19:11;8.75;;;6.45;;
16472;SDS011;8347;52.486;13.432;2023-12-20T00:21:57;8.10;;;6.20;;
16472;SDS011;8347;52.486;13.432;2023-12-20T00:24:45;7.18;;;6.07;;
16472;SDS011;8347;52.486;13.432;2023-12-20T00:27:31;8.25;;;6.10;;
16472;SDS011;8347;52.486;13.432;2023-12-20T00:30:17;7.35;;;6.07;;
16472;SDS011;8347;52.486;13.432;2023-12-20T00:33:04;8.88;;;6.72;;
16472;SDS011;8347;52.486;13.432;2023-12-20T00:35:51;7.60;;;5.72;;
16472;SDS011;8347;52.486;13.432;2023-12-20T00:38:38;7.93;;;6.07;;
16472;SDS011;8347;52.486;13.432;2023-12-20T00:41:24;7.38;;;5.22;;
16472;SDS011;8347;52.486;13.432;2023-12-20T00:44:11;7.25;;;5.50;;
16472;SDS011;8347;52.486;13.432;2023-12-20T00:46:58;8.50;;;5.40;;
16472;SDS011;8347;52.486;13.432;2023-12-20T00:49:44;7.32;;;5.68;;
16472;SDS011;8347;52.486;13.432;2023-12-20T00:52:31;7.10;;;5.38;;
16472;SDS011;8347;52.486;13.432;2023-12-20T00:55:18;7.82;;;5.55;;
16472;SDS011;8347;52.486;13.432;2023-12-20T00:58:04;7.93;;;5.93;;
16472;SDS011;8347;52.486;13.432;2023-12-20T01:00:51;6.57;;;5.30;;
16472;SDS011;8347;52.486;13.432;2023-12-20T01:03:37;8.63;;;6.55;;
16472;SDS011;8347;52.486;13.432;2023-12-20T01:06:24;6.85;;;5.25;;
16472;SDS011;8347;52.486;13.432;2023-12-20T01:09:11;7.63;;;5.82;;
16472;SDS011;8347;52.486;13.432;2023-12-20T01:11:57;6.22;;;5.10;;
16472;SDS011;8347;52.486;13.432;2023-12-20T01:14:44;7.00;;;5.45;;
16472;SDS011;8347;52.486;13.432;2023-12-20T01:17:30;6.13;;;4.78;;
16472;SDS011;8347;52.486;13.432;2023-12-20T01:20:17;6.68;;;5.20;;
16472;SDS011;8347;52.486;13.432;2023-12-20T01:23:05;5.13;;;4.63;;
16472;SDS011;8347;52.486;13.432;2023-12-20T01:25:52;8.35;;;5.78;;
16472;SDS011;8347;52.486;13.432;2023-12-20T01:28:39;7.15;;;5.43;;
16472;SDS011;8347;52.486;13.432;2023-12-20T01:31:26;8.48;;;5.68;;
16472;SDS011;8347;52.486;13.432;2023-12-20T01:34:13;8.63;;;6.88;;
16472;SDS011;8347;52.486;13.432;2023-12-20T01:36:59;6.75;;;5.28;;
16472;SDS011;8347;52.486;13.432;2023-12-20T01:39:46;5.32;;;4.82;;
16472;SDS011;8347;52.486;13.432;2023-12-20T01:42:32;6.07;;;4.63;;
16472;SDS011;8347;52.486;13.432;2023-12-20T01:45:19;5.05;;;3.83;;
16472;SDS011;8347;52.486;13.432;2023-12-20T01:48:05;5.40;;;4.53;;
16472;SDS011;8347;52.486;13.432;2023-12-20T01:50:52;5.85;;;4.57;;
16472;SDS011;8347;52.486;13.432;2023-12-20T01:53:40;6.32;;;4.90;;
16472;SDS011;8347;52.486;13.432;2023-12-20T01:56:27;4.82;;;4.28;;
16472;SDS011;8347;52.486;13.432;2023-12-20T01:59:15;4.65;;;3.35;;
16472;SDS011;8347;52.486;13.432;2023-12-20T02:02:03;5.15;;;4.28;;
16472;SDS011;8347;52.486;13.432;2023-12-20T02:04:49;6.18;;;4.47;;
16472;SDS011;8347;52.486;13.432;2023-12-20T02:07:36;4.45;;;3.80;;
16472;SDS011;8347;52.486;13.432;2023-12-20T02:10:23;4.65;;;3.85;;
16472;SDS011;8347;52.486;13.432;2023-12-20T02:13:10;4.97;;;4.28;;
16472;SDS011;8347;52.486;13.432;2023-12-20T02:15:57;5.18;;;4.53;;
16472;SDS011;8347;52.486;13.432;2023-12-20T02:18:43;5.63;;;4.53;;
16472;SDS011;8347;52.486;13.432;2023-12-20T02:21:33;8.32;;;4.55;;
16472;SDS011;8347;52.486;13.432;2023-12-20T02:24:21;5.60;;;4.30;;
16472;SDS011;8347;52.486;13.432;2023-12-20T02:27:07;6.00;;;4.60;;
16472;SDS011;8347;52.486;13.432;2023-12-20T02:29:54;5.95;;;4.63;;
16472;SDS011;8347;52.486;13.432;2023-12-20T02:32:41;5.85;;;4.38;;
16472;SDS011;8347;52.486;13.432;2023-12-20T02:35:27;5.45;;;4.25;;
16472;SDS011;8347;52.486;13.432;2023-12-20T02:38:14;7.05;;;5.05;;
16472;SDS011;8347;52.486;13.432;2023-12-20T02:41:00;5.93;;;4.35;;
16472;SDS011;8347;52.486;13.432;2023-12-20T02:43:47;5.30;;;4.20;;
16472;SDS011;8347;52.486;13.432;2023-12-20T02:46:34;6.35;;;4.78;;
16472;SDS011;8347;52.486;13.432;2023-12-20T02:49:20;7.63;;;4.90;;
16472;SDS011;8347;52.486;13.432;2023-12-20T02:52:07;7.07;;;4.93;;
16472;SDS011;8347;52.486;13.432;2023-12-20T02:54:53;6.40;;;5.00;;
16472;SDS011;8347;52.486;13.432;2023-12-20T02:57:40;7.63;;;5.75;;
16472;SDS011;8347;52.486;13.432;2023-12-20T03:00:29;7.68;;;5.90;;
16472;SDS011;8347;52.486;13.432;2023-12-20T03:03:16;9.82;;;7.30;;
16472;SDS011;8347;52.486;13.432;2023-12-20T03:06:02;7.47;;;5.82;;
16472;SDS011;8347;52.486;13.432;2023-12-20T03:08:49;9.95;;;6.03;;
16472;SDS011;8347;52.486;13.432;2023-12-20T03:11:36;10.73;;;6.60;;
16472;SDS011;8347;52.486;13.432;2023-12-20T03:14:22;9.18;;;6.57;;
16472;SDS011;8347;52.486;13.432;2023-12-20T03:17:09;11.88;;;6.38;;
16472;SDS011;8347;52.486;13.432;2023-12-20T03:19:55;8.48;;;5.75;;
16472;SDS011;8347;52.486;13.432;2023-12-20T03:22:42;10.05;;;6.43;;
16472;SDS011;8347;52.486;13.432;2023-12-20T03:25:29;12.65;;;6.20;;
16472;SDS011;8347;52.486;13.432;2023-12-20T03:28:15;7.45;;;5.57;;
16472;SDS011;8347;52.486;13.432;2023-12-20T03:31:02;6.60;;;4.93;;
16472;SDS011;8347;52.486;13.432;2023-12-20T03:33:48;11.20;;;4.90;;
16472;SDS011;8347;52.486;13.432;2023-12-20T03:36:36;9.00;;;4.45;;
16472;SDS011;8347;52.486;13.432;2023-12-20T03:39:23;8.80;;;4.57;;
16472;SDS011;8347;52.486;13.432;2023-12-20T03:42:09;9.15;;;4.45;;
16472;SDS011;8347;52.486;13.432;2023-12-20T03:44:56;11.57;;;4.45;;
16472;SDS011;8347;52.486;13.432;2023-12-20T03:47:42;7.95;;;4.35;;
16472;SDS011;8347;52.486;13.432;2023-12-20T03:50:29;6.88;;;3.85;;
16472;SDS011;8347;52.486;13.432;2023-12-20T03:53:15;5.80;;;3.90;;
16472;SDS011;8347;52.486;13.432;2023-12-20T03:56:02;9.18;;;4.47;;
16472;SDS011;8347;52.486;13.432;2023-12-20T03:58:49;8.13;;;4.22;;
16472;SDS011;8347;52.486;13.432;2023-12-20T04:01:35;8.43;;;3.28;;
16472;SDS011;8347;52.486;13.432;2023-12-20T04:04:22;7.15;;;3.20;;
16472;SDS011;8347;52.486;13.432;2023-12-20T04:07:08;8.50;;;3.45;;
16472;SDS011;8347;52.486;13.432;2023-12-20T04:09:54;6.30;;;2.97;;
16472;SDS011;8347;52.486;13.432;2023-12-20T04:12:41;6.13;;;2.47;;
16472;SDS011;8347;52.486;13.432;2023-12-20T04:15:28;12.43;;;2.70;;
16472;SDS011;8347;52.486;13.432;2023-12-20T04:18:14;5.68;;;2.72;;
16472;SDS011;8347;52.486;13.432;2023-12-20T04:21:00;10.15;;;2.90;;
16472;SDS011;8347;52.486;13.432;2023-12-20T04:23:47;9.40;;;2.30;;
16472;SDS011;8347;52.486;13.432;2023-12-20T04:26:33;5.88;;;2.35;;
16472;SDS011;8347;52.486;13.432;2023-12-20T04:29:20;6.15;;;2.42;;
16472;SDS011;8347;52.486;13.432;2023-12-20T04:32:06;7.15;;;2.65;;
16472;SDS011;8347;52.486;13.432;2023-12-20T04:34:52;10.82;;;4.45;;
16472;SDS011;8347;52.486;13.432;2023-12-20T04:37:39;7.95;;;2.97;;
16472;SDS011;8347;52.486;13.432;2023-12-20T04:40:25;9.05;;;2.60;;
16472;SDS011;8347;52.486;13.432;2023-12-20T04:43:12;10.10;;;2.88;;
16472;SDS011;8347;52.486;13.432;2023-12-20T04:45:58;7.70;;;2.05;;
16472;SDS011;8347;52.486;13.432;2023-12-20T04:48:45;8.25;;;2.63;;
16472;SDS011;8347;52.486;13.432;2023-12-20T04:51:34;9.43;;;2.80;;
16472;SDS011;8347;52.486;13.432;2023-12-20T04:54:21;17.08;;;3.30;;
16472;SDS011;8347;52.486;13.432;2023-12-20T04:57:07;9.88;;;2.38;;
16472;SDS011;8347;52.486;13.432;2023-12-20T04:59:53;9.25;;;2.17;;
16472;SDS011;8347;52.486;13.432;2023-12-20T05:02:40;9.40;;;2.33;;
16472;SDS011;8347;52.486;13.432;2023-12-20T05:05:27;8.13;;;2.35;;
16472;SDS011;8347;52.486;13.432;2023-12-20T05:08:13;10.70;;;2.67;;
16472;SDS011;8347;52.486;13.432;2023-12-20T05:11:00;9.65;;;2.70;;
16472;SDS011;8347;52.486;13.432;2023-12-20T05:13:46;7.78;;;2.40;;
16472;SDS011;8347;52.486;13.432;2023-12-20T05:16:33;6.30;;;2.40;;
16472;SDS011;8347;52.486;13.432;2023-12-20T05:19:19;13.50;;;3.17;;
16472;SDS011;8347;52.486;13.432;2023-12-20T05:22:06;8.75;;;3.45;;
16472;SDS011;8347;52.486;13.432;2023-12-20T05:24:52;7.72;;;2.55;;
16472;SDS011;8347;52.486;13.432;2023-12-20T05:27:39;8.45;;;2.15;;
16472;SDS011;8347;52.486;13.432;2023-12-20T05:33:13;8.13;;;2.20;;
16472;SDS011;8347;52.486;13.432;2023-12-20T05:35:59;10.77;;;3.13;;
16472;SDS011;8347;52.486;13.432;2023-12-20T05:38:46;12.65;;;2.50;;
16472;SDS011;8347;52.486;13.432;2023-12-20T05:41:32;5.15;;;2.08;;
16472;SDS011;8347;52.486;13.432;2023-12-20T05:44:19;9.85;;;2.00;;
16472;SDS011;8347;52.486;13.432;2023-12-20T05:47:05;5.57;;;2.10;;
16472;SDS011;8347;52.486;13.432;2023-12-20T05:49:52;6.13;;;2.25;;
16472;SDS011;8347;52.486;13.432;2023-12-20T05:52:38;10.15;;;3.38;;
16472;SDS011;8347;52.486;13.432;2023-12-20T05:55:25;6.93;;;2.38;;
16472;SDS011;8347;52.486;13.432;2023-12-20T05:58:12;10.02;;;2.40;;
16472;SDS011;8347;52.486;13.432;2023-12-20T06:00:59;7.13;;;2.50;;
16472;SDS011;8347;52.486;13.432;2023-12-20T06:03:45;13.15;;;2.40;;
16472;SDS011;8347;52.486;13.432;2023-12-20T06:06:31;9.73;;;2.78;;
16472;SDS011;8347;52.486;13.432;2023-12-20T06:09:18;6.03;;;1.95;;
16472;SDS011;8347;52.486;13.432;2023-12-20T06:12:05;8.50;;;2.15;;
16472;SDS011;8347;52.486;13.432;2023-12-20T06:14:51;8.30;;;2.83;;
16472;SDS011;8347;52.486;13.432;2023-12-20T06:17:38;11.30;;;2.47;;
16472;SDS011;8347;52.486;13.432;2023-12-20T06:20:25;17.42;;;3.40;;
16472;SDS011;8347;52.486;13.432;2023-12-20T06:23:11;5.53;;;2.35;;
16472;SDS011;8347;52.486;13.432;2023-12-20T06:25:58;5.40;;;2.50;;
16472;SDS011;8347;52.486;13.432;2023-12-20T06:28:44;11.93;;;3.53;;
16472;SDS011;8347;52.486;13.432;2023-12-20T06:31:31;13.98;;;3.17;;
16472;SDS011;8347;52.486;13.432;2023-12-20T06:34:18;15.77;;;3.28;;
16472;SDS011;8347;52.486;13.432;2023-12-20T06:37:04;12.00;;;2.42;;
16472;SDS011;8347;52.486;13.432;2023-12-20T06:39:51;12.52;;;2.80;;
16472;SDS011;8347;52.486;13.432;2023-12-20T06:42:37;5.88;;;2.20;;
16472;SDS011;8347;52.486;13.432;2023-12-20T06:45:23;4.80;;;2.40;;
16472;SDS011;8347;52.486;13.432;2023-12-20T06:48:10;8.80;;;2.50;;
16472;SDS011;8347;52.486;13.432;2023-12-20T06:50:59;18.40;;;3.05;;
16472;SDS011;8347;52.486;13.432;2023-12-20T06:53:47;9.63;;;2.55;;
16472;SDS011;8347;52.486;13.432;2023-12-20T06:56:34;9.75;;;3.30;;
16472;SDS011;8347;52.486;13.432;2023-12-20T06:59:21;9.52;;;2.45;;
16472;SDS011;8347;52.486;13.432;2023-12-20T07:02:08;12.00;;;2.75;;
16472;SDS011;8347;52.486;13.432;2023-12-20T07:04:55;4.28;;;1.98;;
16472;SDS011;8347;52.486;13.432;2023-12-20T07:07:41;9.70;;;4.47;;
16472;SDS011;8347;52.486;13.432;2023-12-20T07:10:28;8.90;;;2.53;;
16472;SDS011;8347;52.486;13.432;2023-12-20T07:13:14;7.82;;;2.30;;
16472;SDS011;8347;52.486;13.432;2023-12-20T07:16:01;17.15;;;3.13;;
16472;SDS011;8347;52.486;13.432;2023-12-20T07:18:48;9.65;;;2.85;;
16472;SDS011;8347;52.486;13.432;2023-12-20T07:21:35;8.93;;;2.58;;
16472;SDS011;8347;52.486;13.432;2023-12-20T07:24:21;10.15;;;3.70;;
16472;SDS011;8347;52.486;13.432;2023-12-20T07:27:08;4.75;;;2.90;;
16472;SDS011;8347;52.486;13.432;2023-12-20T07:29:54;15.85;;;3.25;;
16472;SDS011;8347;52.486;13.432;2023-12-20T07:32:41;9.98;;;3.47;;
16472;SDS011;8347;52.486;13.432;2023-12-20T07:35:27;12.45;;;2.72;;
16472;SDS011;8347;52.486;13.432;2023-12-20T07:38:14;7.15;;;3.35;;
16472;SDS011;8347;52.486;13.432;2023-12-20T07:41:00;15.70;;;3.42;;
16472;SDS011;8347;52.486;13.432;2023-12-20T07:43:47;12.05;;;3.30;;
16472;SDS011;8347;52.486;13.432;2023-12-20T07:46:33;7.90;;;3.28;;
16472;SDS011;8347;52.486;13.432;2023-12-20T07:49:20;7.75;;;2.30;;
16472;SDS011;8347;52.486;13.432;2023-12-20T07:52:07;10.82;;;3.03;;
16472;SDS011;8347;52.486;13.432;2023-12-20T07:54:53;11.10;;;3.88;;
16472;SDS011;8347;52.486;13.432;2023-12-20T07:57:41;12.95;;;2.80;;
16472;SDS011;8347;52.486;13.432;2023-12-20T08:00:28;5.90;;;2.83;;
16472;SDS011;8347;52.486;13.432;2023-12-20T08:03:15;10.55;;;2.55;;
16472;SDS011;8347;52.486;13.432;2023-12-20T08:06:02;11.77;;;2.60;;
16472;SDS011;8347;52.486;13.432;2023-12-20T08:08:49;7.75;;;2.65;;
16472;SDS011;8347;52.486;13.432;2023-12-20T08:11:35;8.63;;;2.20;;
16472;SDS011;8347;52.486;13.432;2023-12-20T08:14:22;9.93;;;2.80;;
16472;SDS011;8347;52.486;13.432;2023-12-20T08:17:08;10.23;;;3.55;;
16472;SDS011;8347;52.486;13.432;2023-12-20T08:19:55;13.63;;;3.00;;
16472;SDS011;8347;52.486;13.432;2023-12-20T08:22:41;8.38;;;2.88;;
16472;SDS011;8347;52.486;13.432;2023-12-20T08:25:28;12.73;;;2.78;;
16472;SDS011;8347;52.486;13.432;2023-12-20T08:28:15;6.72;;;2.20;;
16472;SDS011;8347;52.486;13.432;2023-12-20T08:31:01;8.00;;;2.65;;
16472;SDS011;8347;52.486;13.432;2023-12-20T08:33:48;5.65;;;2.50;;
16472;SDS011;8347;52.486;13.432;2023-12-20T08:36:35;9.48;;;2.83;;
16472;SDS011;8347;52.486;13.432;2023-12-20T08:39:21;7.75;;;2.60;;
16472;SDS011;8347;52.486;13.432;2023-12-20T08:42:08;10.80;;;3.08;;
16472;SDS011;8347;52.486;13.432;2023-12-20T08:44:54;9.07;;;3.40;;
16472;SDS011;8347;52.486;13.432;2023-12-20T08:47:41;11.00;;;2.85;;
16472;SDS011;8347;52.486;13.432;2023-12-20T08:50:29;9.23;;;2.80;;
16472;SDS011;8347;52.486;13.432;2023-12-20T08:53:17;9.98;;;3.30;;
16472;SDS011;8347;52.486;13.432;2023-12-20T08:56:04;10.13;;;2.00;;
16472;SDS011;8347;52.486;13.432;2023-12-20T08:58:51;10.75;;;2.72;;
16472;SDS011;8347;52.486;13.432;2023-12-20T09:01:38;5.50;;;2.33;;
16472;SDS011;8347;52.486;13.432;2023-12-20T09:04:24;8.82;;;2.35;;
16472;SDS011;8347;52.486;13.432;2023-12-20T09:07:24;11.55;;;3.35;;
16472;SDS011;8347;52.486;13.432;2023-12-20T09:10:10;6.60;;;2.50;;
16472;SDS011;8347;52.486;13.432;2023-12-20T09:12:57;6.45;;;2.75;;
16472;SDS011;8347;52.486;13.432;2023-12-20T09:15:44;11.60;;;3.92;;
16472;SDS011;8347;52.486;13.432;2023-12-20T09:18:30;13.63;;;3.15;;
16472;SDS011;8347;52.486;13.432;2023-12-20T09:21:17;12.25;;;2.85;;
16472;SDS011;8347;52.486;13.432;2023-12-20T09:24:03;6.07;;;2.45;;
16472;SDS011;8347;52.486;13.432;2023-12-20T09:26:49;9.70;;;1.92;;
16472;SDS011;8347;52.486;13.432;2023-12-20T09:29:36;7.55;;;2.10;;
16472;SDS011;8347;52.486;13.432;2023-12-20T09:32:23;8.95;;;2.08;;
16472;SDS011;8347;52.486;13.432;2023-12-20T09:35:09;9.38;;;1.90;;
16472;SDS011;8347;52.486;13.432;2023-12-20T09:37:56;6.38;;;2.00;;
16472;SDS011;8347;52.486;13.432;2023-12-20T09:40:42;8.82;;;1.90;;
16472;SDS011;8347;52.486;13.432;2023-12-20T09:43:29;5.60;;;1.92;;
16472;SDS011;8347;52.486;13.432;2023-12-20T09:46:16;11.10;;;2.80;;
16472;SDS011;8347;52.486;13.432;2023-12-20T09:49:05;10.25;;;2.25;;
16472;SDS011;8347;52.486;13.432;2023-12-20T09:51:53;7.03;;;2.13;;
16472;SDS011;8347;52.486;13.432;2023-12-20T09:54:40;9.98;;;2.75;;
16472;SDS011;8347;52.486;13.432;2023-12-20T09:57:26;9.10;;;2.35;;
16472;SDS011;8347;52.486;13.432;2023-12-20T10:00:14;7.85;;;2.95;;
16472;SDS011;8347;52.486;13.432;2023-12-20T10:03:00;11.10;;;3.97;;
16472;SDS011;8347;52.486;13.432;2023-12-20T10:05:47;7.82;;;3.08;;
16472;SDS011;8347;52.486;13.432;2023-12-20T10:08:36;9.93;;;4.15;;
16472;SDS011;8347;52.486;13.432;2023-12-20T10:11:22;7.90;;;2.35;;
16472;SDS011;8347;52.486;13.432;2023-12-20T10:14:10;9.13;;;2.85;;
16472;SDS011;8347;52.486;13.432;2023-12-20T10:17:01;11.45;;;3.63;;
16472;SDS011;8347;52.486;13.432;2023-12-20T10:19:48;9.73;;;2.38;;
16472;SDS011;8347;52.486;13.432;2023-12-20T10:22:35;16.40;;;3.17;;
16472;SDS011;8347;52.486;13.432;2023-12-20T10:25:21;9.05;;;2.50;;
16472;SDS011;8347;52.486;13.432;2023-12-20T10:28:09;13.88;;;4.40;;
16472;SDS011;8347;52.486;13.432;2023-12-20T10:30:57;12.43;;;3.20;;
16472;SDS011;8347;52.486;13.432;2023-12-20T10:33:44;8.88;;;4.40;;
16472;SDS011;8347;52.486;13.432;2023-12-20T10:36:31;16.05;;;4.45;;
16472;SDS011;8347;52.486;13.432;2023-12-20T10:39:18;11.90;;;3.47;;
16472;SDS011;8347;52.486;13.432;2023-12-20T10:42:05;12.35;;;2.80;;
16472;SDS011;8347;52.486;13.432;2023-12-20T10:44:52;15.35;;;2.63;;
16472;SDS011;8347;52.486;13.432;2023-12-20T10:47:39;10.77;;;3.15;;
16472;SDS011;8347;52.486;13.432;2023-12-20T10:50:27;11.95;;;3.42;;
16472;SDS011;8347;52.486;13.432;2023-12-20T10:53:14;11.43;;;4.53;;
16472;SDS011;8347;52.486;13.432;2023-12-20T10:56:02;17.90;;;4.57;;
16472;SDS011;8347;52.486;13.432;2023-12-20T10:58:49;9.10;;;3.38;;
16472;SDS011;8347;52.486;13.432;2023-12-20T11:01:36;9.80;;;2.78;;
16472;SDS011;8347;52.486;13.432;2023-12-20T11:04:28;10.02;;;2.97;;
16472;SDS011;8347;52.486;13.432;2023-12-20T11:07:19;10.82;;;2.65;;
16472;SDS011;8347;52.486;13.432;2023-12-20T11:13:12;9.43;;;3.03;;
16472;SDS011;8347;52.486;13.432;2023-12-20T11:16:09;19.75;;;3.63;;
16472;SDS011;8347;52.486;13.432;2023-12-20T11:18:56;13.85;;;3.15;;
16472;SDS011;8347;52.486;13.432;2023-12-20T11:21:42;13.98;;;2.70;;
16472;SDS011;8347;52.486;13.432;2023-12-20T11:24:30;9.13;;;3.40;;
16472;SDS011;8347;52.486;13.432;2023-12-20T11:27:19;14.45;;;3.47;;
16472;SDS011;8347;52.486;13.432;2023-12-20T11:30:06;15.05;;;3.00;;
16472;SDS011;8347;52.486;13.432;2023-12-20T11:32:54;9.13;;;3.40;;
16472;SDS011;8347;52.486;13.432;2023-12-20T11:35:41;9.27;;;3.72;;
16472;SDS011;8347;52.486;13.432;2023-12-20T11:38:35;10.65;;;2.90;;
16472;SDS011;8347;52.486;13.432;2023-12-20T11:41:23;9.25;;;3.50;;
16472;SDS011;8347;52.486;13.432;2023-12-20T11:44:10;13.70;;;4.25;;
16472;SDS011;8347;52.486;13.432;2023-12-20T11:46:57;11.00;;;3.05;;
16472;SDS011;8347;52.486;13.432;2023-12-20T11:49:44;14.30;;;3.70;;
16472;SDS011;8347;52.486;13.432;2023-12-20T11:52:30;7.38;;;3.80;;
16472;SDS011;8347;52.486;13.432;2023-12-20T11:55:17;15.18;;;3.15;;
16472;SDS011;8347;52.486;13.432;2023-12-20T11:58:04;5.95;;;3.08;;
16472;SDS011;8347;52.486;13.432;2023-12-20T12:00:51;10.35;;;3.17;;
16472;SDS011;8347;52.486;13.432;2023-12-20T12:03:37;10.23;;;3.50;;
16472;SDS011;8347;52.486;13.432;2023-12-20T12:06:24;14.10;;;4.80;;
16472;SDS011;8347;52.486;13.432;2023-12-20T12:09:11;9.73;;;3.55;;
16472;SDS011;8347;52.486;13.432;2023-12-20T12:11:57;10.80;;;3.20;;
16472;SDS011;8347;52.486;13.432;2023-12-20T12:14:47;13.85;;;4.25;;
16472;SDS011;8347;52.486;13.432;2023-12-20T12:17:34;11.25;;;3.60;;
16472;SDS011;8347;52.486;13.432;2023-12-20T12:20:21;7.10;;;2.78;;
16472;SDS011;8347;52.486;13.432;2023-12-20T12:23:08;9.18;;;2.90;;
16472;SDS011;8347;52.486;13.432;2023-12-20T12:25:55;8.77;;;3.10;;
16472;SDS011;8347;52.486;13.432;2023-12-20T12:28:42;10.45;;;3.13;;
16472;SDS011;8347;52.486;13.432;2023-12-20T12:31:28;9.32;;;3.05;;
16472;SDS011;8347;52.486;13.432;2023-12-20T12:34:16;8.43;;;2.53;;
16472;SDS011;8347;52.486;13.432;2023-12-20T12:37:03;11.95;;;3.42;;
16472;SDS011;8347;52.486;13.432;2023-12-20T12:39:52;7.78;;;2.70;;
16472;SDS011;8347;52.486;13.432;2023-12-20T12:42:40;7.38;;;3.35;;
16472;SDS011;8347;52.486;13.432;2023-12-20T12:45:27;12.80;;;3.95;;
16472;SDS011;8347;52.486;13.432;2023-12-20T12:48:14;11.52;;;3.28;;
16472;SDS011;8347;52.486;13.432;2023-12-20T12:51:01;9.85;;;3.40;;
16472;SDS011;8347;52.486;13.432;2023-12-20T12:53:48;6.43;;;3.28;;
16472;SDS011;8347;52.486;13.432;2023-12-20T12:56:34;14.55;;;4.18;;
16472;SDS011;8347;52.486;13.432;2023-12-20T12:59:20;12.85;;;3.90;;
16472;SDS011;8347;52.486;13.432;2023-12-20T13:02:07;8.35;;;3.72;;
16472;SDS011;8347;52.486;13.432;2023-12-20T13:04:54;9.02;;;3.38;;
16472;SDS011;8347;52.486;13.432;2023-12-20T13:07:40;10.63;;;5.07;;
16472;SDS011;8347;52.486;13.432;2023-12-20T13:10:27;9.48;;;3.70;;
16472;SDS011;8347;52.486;13.432;2023-12-20T13:13:14;11.45;;;3.55;;
16472;SDS011;8347;52.486;13.432;2023-12-20T13:16:00;8.02;;;3.42;;
16472;SDS011;8347;52.486;13.432;2023-12-20T13:18:47;11.63;;;4.35;;
16472;SDS011;8347;52.486;13.432;2023-12-20T13:21:33;10.60;;;4.13;;
16472;SDS011;8347;52.486;13.432;2023-12-20T13:24:20;9.32;;;3.67;;
16472;SDS011;8347;52.486;13.432;2023-12-20T13:27:07;14.30;;;4.80;;
16472;SDS011;8347;52.486;13.432;2023-12-20T13:29:53;13.73;;;4.38;;
16472;SDS011;8347;52.486;13.432;2023-12-20T13:32:40;13.52;;;4.50;;
16472;SDS011;8347;52.486;13.432;2023-12-20T13:35:26;12.20;;;3.50;;
16472;SDS011;8347;52.486;13.432;2023-12-20T13:38:13;5.28;;;2.85;;
16472;SDS011;8347;52.486;13.432;2023-12-20T13:40:59;5.97;;;2.92;;
16472;SDS011;8347;52.486;13.432;2023-12-20T13:43:46;8.10;;;4.93;;
16472;SDS011;8347;52.486;13.432;2023-12-20T13:46:33;11.25;;;4.18;;
16472;SDS011;8347;52.486;13.432;2023-12-20T13:49:19;16.58;;;7.07;;
16472;SDS011;8347;52.486;13.432;2023-12-20T13:52:06;9.10;;;4.72;;
16472;SDS011;8347;52.486;13.432;2023-12-20T13:54:53;5.45;;;2.63;;
16472;SDS011;8347;52.486;13.432;2023-12-20T13:57:40;7.80;;;4.13;;
16472;SDS011;8347;52.486;13.432;2023-12-20T14:00:27;11.80;;;5.00;;
16472;SDS011;8347;52.486;13.432;2023-12-20T14:03:13;17.48;;;6.38;;
16472;SDS011;8347;52.486;13.432;2023-12-20T14:06:00;16.40;;;6.85;;
16472;SDS011;8347;52.486;13.432;2023-12-20T14:08:47;23.02;;;10.23;;
16472;SDS011;8347;52.486;13.432;2023-12-20T14:11:34;16.08;;;6.18;;
16472;SDS011;8347;52.486;13.432;2023-12-20T14:14:20;14.65;;;4.90;;
16472;SDS011;8347;52.486;13.432;2023-12-20T14:17:06;11.73;;;4.53;;
16472;SDS011;8347;52.486;13.432;2023-12-20T14:19:53;7.38;;;3.38;;
16472;SDS011;8347;52.486;13.432;2023-12-20T14:22:40;7.55;;;2.88;;
16472;SDS011;8347;52.486;13.432;2023-12-20T14:25:30;10.88;;;3.63;;
16472;SDS011;8347;52.486;13.432;2023-12-20T14:28:19;5.53;;;2.75;;
16472;SDS011;8347;52.486;13.432;2023-12-20T14:31:06;4.20;;;2.65;;
16472;SDS011;8347;52.486;13.432;2023-12-20T14:33:52;5.22;;;2.72;;
16472;SDS011;8347;52.486;13.432;2023-12-20T14:36:40;5.30;;;2.58;;
16472;SDS011;8347;52.486;13.432;2023-12-20T14:39:27;2.92;;;1.85;;
16472;SDS011;8347;52.486;13.432;2023-12-20T14:42:13;9.55;;;4.38;;
16472;SDS011;8347;52.486;13.432;2023-12-20T14:45:00;22.40;;;8.00;;
16472;SDS011;8347;52.486;13.432;2023-12-20T14:47:47;12.88;;;6.38;;
16472;SDS011;8347;52.486;13.432;2023-12-20T14:50:34;9.85;;;4.22;;
16472;SDS011;8347;52.486;13.432;2023-12-20T14:53:22;9.40;;;3.88;;
16472;SDS011;8347;52.486;13.432;2023-12-20T14:56:09;6.93;;;2.70;;
16472;SDS011;8347;52.486;13.432;2023-12-20T14:58:55;7.78;;;3.97;;
16472;SDS011;8347;52.486;13.432;2023-12-20T15:01:43;18.38;;;7.75;;
16472;SDS011;8347;52.486;13.432;2023-12-20T15:04:30;15.52;;;6.45;;
16472;SDS011;8347;52.486;13.432;2023-12-20T15:07:17;15.93;;;5.88;;
16472;SDS011;8347;52.486;13.432;2023-12-20T15:10:04;16.20;;;5.20;;
16472;SDS011;8347;52.486;13.432;2023-12-20T15:12:50;11.50;;;5.55;;
16472;SDS011;8347;52.486;13.432;2023-12-20T15:15:37;11.32;;;5.03;;
16472;SDS011;8347;52.486;13.432;2023-12-20T15:18:24;9.98;;;4.32;;
16472;SDS011;8347;52.486;13.432;2023-12-20T15:21:10;9.30;;;4.20;;
16472;SDS011;8347;52.486;13.432;2023-12-20T15:23:57;9.15;;;3.63;;
16472;SDS011;8347;52.486;13.432;2023-12-20T15:26:51;7.88;;;4.55;;
16472;SDS011;8347;52.486;13.432;2023-12-20T15:29:37;8.25;;;4.40;;
16472;SDS011;8347;52.486;13.432;2023-12-20T15:32:24;18.42;;;7.15;;
16472;SDS011;8347;52.486;13.432;2023-12-20T15:35:11;16.90;;;7.68;;
16472;SDS011;8347;52.486;13.432;2023-12-20T15:37:58;17.83;;;6.47;;
16472;SDS011;8347;52.486;13.432;2023-12-20T15:40:44;10.55;;;4.18;;
16472;SDS011;8347;52.486;13.432;2023-12-20T15:43:30;9.95;;;3.20;;
16472;SDS011;8347;52.486;13.432;2023-12-20T15:46:17;11.80;;;4.45;;
16472;SDS011;8347;52.486;13.432;2023-12-20T15:49:04;12.75;;;4.85;;
16472;SDS011;8347;52.486;13.432;2023-12-20T15:51:50;9.88;;;4.47;;
16472;SDS011;8347;52.486;13.432;2023-12-20T15:54:37;12.40;;;4.18;;
16472;SDS011;8347;52.486;13.432;2023-12-20T15:57:24;14.65;;;5.03;;
16472;SDS011;8347;52.486;13.432;2023-12-20T16:00:11;12.10;;;5.25;;
16472;SDS011;8347;52.486;13.432;2023-12-20T16:02:58;11.75;;;6.00;;
16472;SDS011;8347;52.486;13.432;2023-12-20T16:05:44;14.55;;;6.68;;
16472;SDS011;8347;52.486;13.432;2023-12-20T16:08:30;12.85;;;4.15;;
16472;SDS011;8347;52.486;13.432;2023-12-20T16:11:17;7.38;;;3.65;;
16472;SDS011;8347;52.486;13.432;2023-12-20T16:14:04;10.18;;;3.35;;
16472;SDS011;8347;52.486;13.432;2023-12-20T16:16:50;7.90;;;4.15;;
16472;SDS011;8347;52.486;13.432;2023-12-20T16:19:36;20.52;;;6.95;;
16472;SDS011;8347;52.486;13.432;2023-12-20T16:22:23;12.35;;;6.28;;
16472;SDS011;8347;52.486;13.432;2023-12-20T16:25:09;12.15;;;5.20;;
16472;SDS011;8347;52.486;13.432;2023-12-20T16:27:56;10.75;;;4.32;;
16472;SDS011;8347;52.486;13.432;2023-12-20T16:30:43;13.77;;;7.03;;
16472;SDS011;8347;52.486;13.432;2023-12-20T16:33:29;20.17;;;7.28;;
16472;SDS011;8347;52.486;13.432;2023-12-20T16:36:16;22.58;;;7.13;;
16472;SDS011;8347;52.486;13.432;2023-12-20T16:39:03;27.00;;;10.20;;
16472;SDS011;8347;52.486;13.432;2023-12-20T16:41:49;21.58;;;8.35;;
16472;SDS011;8347;52.486;13.432;2023-12-20T16:44:36;36.58;;;12.13;;
16472;SDS011;8347;52.486;13.432;2023-12-20T16:47:22;23.00;;;8.90;;